Time;durP1;ratioP1;P1;durP2;ratioP2;P2;SDS_P1;SDS_P2;PMS_P1;PMS_P2;Temp;Humidity;BMP_temperature;BMP_pressure;BME280_temperature;BME280_humidity;BME280_pressure;Samples;Min_cycle;Max_cycle;Signal;HPM_P1;HPM_P2
2022/05/20 00:01:15;;;;;;;0.50;0.50;;;25.60;56.70;;;28.48;42.08;101932.31;5128206;28;20187;-43
2022/05/20 00:03:42;;;;;;;0.63;0.63;;;25.60;56.80;;;28.49;42.26;101938.56;5121378;28;20245;-44
2022/05/20 00:06:09;;;;;;;0.50;0.50;;;25.60;56.80;;;28.48;42.41;101934.22;5097467;28;20703;-43
2022/05/20 00:08:36;;;;;;;0.70;0.70;;;25.60;56.70;;;28.48;42.09;101937.72;5099753;28;20194;-43
2022/05/20 00:11:02;;;;;;;0.80;0.80;;;25.60;56.70;;;28.49;42.03;101949.38;4988588;28;20195;-43
2022/05/20 00:13:30;;;;;;;0.70;0.70;;;25.60;56.70;;;28.48;41.96;101947.78;4997662;28;20206;-43
2022/05/20 00:15:56;;;;;;;0.57;0.57;;;25.60;56.80;;;28.48;42.04;101958.63;5013877;28;20621;-43
2022/05/20 00:21:00;;;;;;;0.60;0.60;;;25.60;56.70;;;28.48;42.10;101955.91;5170234;27;20545;-51
2022/05/20 00:23:26;;;;;;;0.53;0.53;;;25.60;56.80;;;28.47;41.97;101963.22;5149388;27;20182;-41
2022/05/20 00:25:53;;;;;;;0.60;0.60;;;25.60;56.70;;;28.48;42.16;101961.31;5129300;27;20226;-43
2022/05/20 00:28:25;;;;;;;0.60;0.60;;;25.60;56.70;;;28.47;42.09;101973.22;5141757;27;20340;-43
2022/05/20 00:30:55;;;;;;;0.40;0.40;;;25.60;56.70;;;28.47;42.10;101973.22;5109151;28;20261;-43
2022/05/20 00:33:23;;;;;;;0.57;0.57;;;25.50;56.70;;;28.47;42.04;101979.47;5111430;28;20217;-42
2022/05/20 00:35:50;;;;;;;0.63;0.63;;;25.60;56.70;;;28.47;42.19;101984.88;5122975;28;20225;-43
2022/05/20 00:38:17;;;;;;;0.40;0.40;;;25.50;56.60;;;28.46;41.92;101987.84;5122990;28;20195;-43
2022/05/20 00:40:58;;;;;;;1.43;0.60;;;25.60;56.70;;;28.46;41.89;101987.84;4933437;28;20218;-43
2022/05/20 00:46:07;;;;;;;0.67;0.67;;;25.60;56.70;;;28.45;41.95;101992.47;5154904;27;20562;-44
2022/05/20 00:48:34;;;;;;;0.60;0.60;;;25.50;56.70;;;28.45;42.22;101997.88;5110084;28;20200;-44
2022/05/20 00:51:07;;;;;;;0.60;0.60;;;25.50;56.70;;;28.44;41.97;101995.44;5103733;28;20245;-43
2022/05/20 00:53:39;;;;;;;0.40;0.40;;;25.60;56.70;;;28.45;42.05;101986.22;5089299;28;20276;-43
2022/05/20 00:56:10;;;;;;;0.53;0.53;;;25.60;56.70;;;28.44;41.98;101985.41;5080743;28;20704;-43
2022/05/20 00:58:38;;;;;;;0.60;0.60;;;25.50;56.60;;;28.43;41.90;101989.19;5079102;28;20643;-46
2022/05/20 01:01:06;;;;;;;0.73;0.73;;;25.50;56.60;;;28.43;42.07;101991.09;5083616;28;20204;-43
2022/05/20 01:03:36;;;;;;;0.50;0.50;;;25.50;56.60;;;28.42;42.07;101981.31;5026720;28;20546;-43
2022/05/20 01:06:17;;;;;;;0.60;0.60;;;25.50;56.60;;;28.41;42.12;101985.13;4882580;29;20284;-41
2022/05/20 01:11:20;;;;;;;0.50;0.50;;;25.50;56.60;;;28.41;42.09;101987.84;5169980;27;20545;-43
2022/05/20 01:13:49;;;;;;;0.40;0.40;;;25.50;56.60;;;28.41;42.08;101990.56;5149496;27;20195;-42
2022/05/20 01:16:17;;;;;;;0.33;0.33;;;25.50;56.60;;;28.40;42.05;101994.31;5135933;27;20219;-42
2022/05/20 01:18:53;;;;;;;0.43;0.40;;;25.50;56.60;;;28.40;42.08;101997.03;5136191;27;20210;-44
2022/05/20 01:21:20;;;;;;;0.50;0.50;;;25.50;56.70;;;28.39;42.01;102000.81;5090908;28;20197;-42
2022/05/20 01:23:47;;;;;;;0.50;0.50;;;25.50;56.60;;;28.39;42.09;101998.09;5100031;28;20202;-42
2022/05/20 01:26:14;;;;;;;0.30;0.30;;;25.50;56.60;;;28.38;42.15;101991.91;5103320;28;20228;-43
2022/05/20 01:28:40;;;;;;;0.40;0.40;;;25.50;56.60;;;28.38;42.18;101993.78;5103877;28;20204;-44
2022/05/20 01:31:07;;;;;;;0.40;0.40;;;25.50;56.60;;;28.37;42.21;102009.22;5110964;28;20207;-43
2022/05/20 01:36:12;;;;;;;0.40;0.40;;;25.50;56.60;;;28.36;41.78;102010.28;5155094;27;20405;-43
2022/05/20 01:38:39;;;;;;;0.50;0.50;;;25.50;56.60;;;28.37;42.12;102013.81;5110120;28;20196;-43
2022/05/20 01:41:11;;;;;;;0.50;0.50;;;25.50;56.60;;;28.35;42.11;102007.84;5107704;28;20721;-43
2022/05/20 01:43:52;;;;;;;0.50;0.50;;;25.50;56.60;;;28.32;41.95;102009.19;5060243;28;20194;-44
2022/05/20 01:46:33;;;;;;;0.40;0.40;;;25.40;56.50;;;28.30;41.95;102015.94;5014258;28;20214;-44
2022/05/20 01:49:26;;;;;;;0.50;0.50;;;25.50;56.50;;;28.26;42.10;102010.25;4988413;28;20199;-43
2022/05/20 01:52:03;;;;;;;0.40;0.40;;;25.40;56.40;;;28.30;42.11;102005.09;4918687;29;20250;-41
2022/05/20 01:54:29;;;;;;;0.50;0.50;;;25.40;56.40;;;28.31;41.98;102012.16;4847590;29;20226;-43
2022/05/20 01:56:55;;;;;;;0.43;0.43;;;25.40;56.40;;;28.30;41.97;102005.09;4833636;29;20605;-52
2022/05/20 02:01:58;;;;;;;0.50;0.50;;;25.40;56.40;;;28.29;42.08;102011.59;5170390;27;20545;-41
2022/05/20 02:04:33;;;;;;;0.30;0.30;;;25.40;56.40;;;28.29;41.95;102017.03;5130719;27;20203;-42
2022/05/20 02:07:14;;;;;;;0.40;0.40;;;25.40;56.40;;;28.28;41.90;102023.50;5115584;28;20631;-43
2022/05/20 02:09:48;;;;;;;0.50;0.50;;;25.40;56.30;;;28.30;41.68;102024.06;5097069;28;20200;-43
2022/05/20 02:12:22;;;;;;;0.50;0.50;;;25.40;56.40;;;28.29;41.86;102017.03;5058817;28;20193;-43
2022/05/20 02:14:59;;;;;;;0.50;0.50;;;25.40;56.30;;;28.27;41.81;102011.03;4997411;28;20224;-42
2022/05/20 02:17:34;;;;;;;0.50;0.50;;;25.40;56.30;;;28.27;41.85;102006.44;4879731;29;20207;-43
2022/05/20 02:22:46;;;;;;;0.50;0.50;;;25.40;56.30;;;28.27;41.76;102002.91;5161913;27;20549;-43
2022/05/20 02:25:19;;;;;;;0.30;0.30;;;25.40;56.30;;;28.28;41.67;102012.66;5119878;28;20698;-44
2022/05/20 02:28:57;;;;;;;0.30;0.30;;;25.40;56.30;;;28.19;41.89;102020.47;5093556;28;20192;-43
2022/05/20 02:31:37;;;;;;;0.40;0.40;;;25.40;56.20;;;28.20;41.98;102022.09;5050677;28;20197;-43
2022/05/20 02:34:04;;;;;;;0.30;0.30;;;25.30;56.10;;;28.23;41.76;102020.75;4958456;28;20240;-43
2022/05/20 02:36:34;;;;;;;0.30;0.30;;;25.40;56.20;;;28.24;41.86;102017.00;4875463;29;20246;-44
2022/05/20 02:39:07;;;;;;;0.40;0.40;;;25.40;56.20;;;28.23;41.88;102018.06;4839545;29;20212;-42
2022/05/20 02:42:48;;;;;;;0.53;0.40;;;25.40;56.20;;;28.13;41.90;102019.63;4797133;29;20239;-43
2022/05/20 02:47:52;;;;;;;0.40;0.40;;;25.30;56.10;;;28.21;41.63;102025.63;5161616;27;21157;-41
2022/05/20 02:50:19;;;;;;;0.50;0.50;;;25.30;56.10;;;28.21;41.71;102028.34;5126455;28;20270;-43
2022/05/20 02:52:45;;;;;;;0.40;0.40;;;25.30;56.10;;;28.23;41.73;102031.59;5148351;27;20202;-43
2022/05/20 02:55:13;;;;;;;0.40;0.40;;;25.30;56.10;;;28.22;41.42;102021.84;5144464;27;20224;-43
2022/05/20 02:57:39;;;;;;;0.30;0.30;;;25.30;56.00;;;28.24;41.75;102022.41;5135035;27;20204;-43
2022/05/20 03:05:43;;;;;;;0.30;0.30;;;25.30;56.00;;;28.19;41.44;102032.09;4945451;28;20328;-43
2022/05/20 03:08:24;;;;;;;0.40;0.40;;;25.30;55.90;;;28.18;41.89;102030.50;4917069;29;20294;-42
2022/05/20 03:13:28;;;;;;;0.30;0.30;;;25.30;55.90;;;28.21;41.57;102025.63;5170163;27;20552;-43
2022/05/20 03:15:55;;;;;;;0.30;0.30;;;25.30;55.90;;;28.21;41.31;102022.91;5133738;27;20678;-43
2022/05/20 03:18:22;;;;;;;0.37;0.37;;;25.30;55.80;;;28.21;41.45;102020.22;5119171;28;20620;-42
2022/05/20 03:20:48;;;;;;;0.30;0.30;;;25.30;55.80;;;28.21;41.38;102017.50;5117259;28;20203;-43
2022/05/20 03:23:15;;;;;;;0.50;0.50;;;25.30;55.80;;;28.21;41.42;102012.09;5080290;28;20198;-43
2022/05/20 03:25:41;;;;;;;0.20;0.20;;;25.30;55.80;;;28.21;41.36;102014.78;5014885;28;20274;-43
2022/05/20 03:28:11;;;;;;;0.40;0.40;;;25.30;55.80;;;28.18;41.59;102014.25;5064260;28;20197;-43
2022/05/20 03:30:40;;;;;;;0.43;0.43;;;25.30;55.80;;;28.20;41.32;102016.69;5057817;28;20876;-43
2022/05/20 03:33:06;;;;;;;0.30;0.30;;;25.30;55.70;;;28.19;41.32;102018.56;5038233;28;20332;-42
2022/05/20 03:38:11;;;;;;;0.30;0.30;;;25.30;55.70;;;28.21;41.18;102003.97;5163454;27;20551;-42
2022/05/20 03:40:37;;;;;;;0.30;0.30;;;25.30;55.60;;;28.18;41.32;102003.41;5149108;27;20198;-43
2022/05/20 03:43:05;;;;;;;0.30;0.30;;;25.30;55.60;;;28.19;41.35;102009.66;5148879;27;20190;-44
2022/05/20 03:45:32;;;;;;;0.40;0.40;;;25.30;55.60;;;28.18;41.35;102008.81;5144738;27;20236;-43
2022/05/20 03:47:59;;;;;;;0.40;0.40;;;25.30;55.60;;;28.19;41.21;102015.06;5121057;27;20212;-43
2022/05/20 03:50:25;;;;;;;0.30;0.30;;;25.30;55.50;;;28.19;41.35;102018.56;5073123;28;20187;-43
2022/05/20 03:52:54;;;;;;;1.37;0.23;;;25.30;55.50;;;28.18;41.00;102019.66;5083193;28;20836;-41
2022/05/20 03:55:23;;;;;;;0.20;0.20;;;25.30;55.50;;;28.19;41.16;102031.31;5077957;28;20224;-44
2022/05/20 03:57:50;;;;;;;0.33;0.33;;;25.30;55.40;;;28.18;40.92;102027.78;5071732;28;20304;-44
2022/05/20 04:02:54;;;;;;;0.40;0.40;;;25.30;55.40;;;28.20;41.01;102038.34;5170351;27;20544;-44
2022/05/20 04:05:21;;;;;;;0.30;0.30;;;25.30;55.40;;;28.18;41.20;102030.50;5133968;27;20222;-42
2022/05/20 04:07:48;;;;;;;0.30;0.30;;;25.30;55.30;;;28.18;41.01;102027.78;5124016;28;20199;-42
2022/05/20 04:10:14;;;;;;;0.30;0.30;;;25.30;55.30;;;28.18;41.17;102025.06;5106323;28;20233;-42
2022/05/20 04:12:42;;;;;;;0.30;0.30;;;25.30;55.30;;;28.19;41.00;102020.47;5118739;28;20219;-44
2022/05/20 04:15:13;;;;;;;0.20;0.20;;;25.30;55.90;;;28.17;40.94;102026.13;5064682;28;20225;-43
2022/05/20 04:17:40;;;;;;;0.30;0.30;;;25.30;55.20;;;28.18;41.13;102035.09;5003778;28;20199;-43
2022/05/20 04:20:10;;;;;;;0.20;0.20;;;25.30;55.20;;;28.16;40.45;102032.66;5002034;28;20200;-43
2022/05/20 04:22:37;;;;;;;0.30;0.30;;;25.30;55.20;;;28.16;41.05;102040.78;5014625;28;20704;-42
2022/05/20 04:27:42;;;;;;;0.40;0.40;;;25.20;55.10;;;28.16;40.75;102035.34;5168905;27;20649;-44
2022/05/20 04:30:10;;;;;;;0.30;0.30;;;25.20;55.00;;;28.16;40.77;102048.91;5148947;27;20191;-42
2022/05/20 04:32:36;;;;;;;0.20;0.20;;;25.20;55.00;;;28.15;40.84;102044.53;5148937;27;20653;-43
2022/05/20 04:35:03;;;;;;;0.30;0.30;;;25.20;55.00;;;28.15;40.57;102047.25;5144149;27;20225;-42
2022/05/20 04:37:30;;;;;;;0.20;0.20;;;25.30;55.00;;;28.14;40.93;102045.63;5130331;27;20572;-44
2022/05/20 04:39:58;;;;;;;0.40;0.40;;;25.20;54.90;;;28.15;40.76;102051.84;5110351;28;20214;-42
2022/05/20 04:48:11;;;;;;;0.23;0.23;;;25.20;54.90;;;28.11;40.84;102073.22;4987721;28;20197;-43
2022/05/20 04:54:49;;;;;;;0.30;0.30;;;25.20;54.90;;;28.13;40.69;102071.06;5170170;27;20633;-44
2022/05/20 04:56:01;;;;;;;0.20;0.20;;;25.20;54.90;;;28.12;40.68;102074.06;5109535;28;20223;-44
2022/05/20 04:58:28;;;;;;;0.30;0.30;;;25.20;54.80;;;28.13;40.73;102081.09;5078528;28;20200;-42
2022/05/20 05:00:56;;;;;;;0.30;0.30;;;25.20;54.80;;;28.12;40.65;102074.84;5087744;28;20200;-41
2022/05/20 05:03:23;;;;;;;0.30;0.30;;;25.20;54.80;;;28.13;40.81;102081.91;5083921;28;20193;-44
2022/05/20 05:05:50;;;;;;;0.30;0.30;;;25.20;54.70;;;28.14;40.59;102080.03;5090513;28;20219;-43
2022/05/20 05:08:23;;;;;;;0.30;0.30;;;25.20;54.70;;;28.13;40.33;102100.88;5096647;28;20200;-42
2022/05/20 05:10:52;;;;;;;0.27;0.27;;;25.20;54.70;;;28.13;40.53;102108.16;5102468;28;20527;-42
2022/05/20 05:13:18;;;;;;;0.30;0.30;;;25.20;54.70;;;28.13;40.75;102103.59;5119908;28;20199;-46
2022/05/20 05:18:25;;;;;;;0.20;0.20;;;25.20;54.60;;;28.13;40.38;102100.88;5164092;27;20551;-42
2022/05/20 05:20:52;;;;;;;0.20;0.20;;;25.20;54.60;;;28.14;40.43;102113.34;5128037;27;20195;-42
2022/05/20 05:23:20;;;;;;;0.30;0.30;;;25.20;54.60;;;28.14;40.62;102110.66;5148780;27;20187;-42
2022/05/20 05:25:47;;;;;;;0.27;0.27;;;25.20;54.50;;;28.14;40.43;102116.06;5136420;27;20249;-41
2022/05/20 05:28:14;;;;;;;0.30;0.30;;;25.20;54.50;;;28.15;40.01;102117.69;5124408;27;20214;-45
2022/05/20 05:30:45;;;;;;;0.20;0.20;;;25.20;54.50;;;28.14;40.26;102121.47;5109985;28;20195;-45
2022/05/20 05:33:12;;;;;;;0.30;0.30;;;25.20;54.40;;;28.15;40.11;102128.50;5123976;28;20221;-42
2022/05/20 05:35:39;;;;;;;0.30;0.30;;;25.20;54.40;;;28.16;40.46;102134.75;5118551;28;20218;-41
2022/05/20 05:38:06;;;;;;;0.30;0.30;;;25.20;54.40;;;28.15;40.25;102139.34;5012180;28;20223;-43
2022/05/20 05:43:10;;;;;;;0.20;0.20;;;25.20;54.40;;;28.16;40.41;102135.56;5170227;27;20637;-44
2022/05/20 05:45:37;;;;;;;0.40;0.40;;;25.20;54.30;;;28.14;40.26;102135.03;5137757;27;20215;-41
2022/05/20 05:48:08;;;;;;;0.20;0.20;;;25.20;54.30;;;28.14;40.33;102126.91;5143716;27;20190;-43
2022/05/20 05:50:38;;;;;;;0.27;0.27;;;25.20;54.30;;;28.14;40.33;102140.44;5148190;27;20251;-43
2022/05/20 05:53:10;;;;;;;0.30;0.30;;;25.20;54.20;;;28.13;39.93;102136.09;5137849;27;20191;-45
2022/05/20 05:55:38;;;;;;;0.30;0.30;;;25.20;54.20;;;28.13;40.26;102137.97;5139825;27;20252;-43
2022/05/20 05:58:05;;;;;;;0.20;0.20;;;25.20;54.20;;;28.13;40.24;102138.78;5140982;27;20194;-44
2022/05/20 06:01:17;;;;;;;0.20;0.20;;;25.20;54.20;;;28.06;40.13;102140.06;5120849;28;20197;-42
2022/05/20 06:04:37;;;;;;;0.20;0.20;;;25.20;54.10;;;28.08;40.22;102143.34;5167237;27;20657;-44
2022/05/20 06:07:05;;;;;;;0.23;0.23;;;25.20;54.10;;;28.09;40.03;102128.72;5128436;28;20202;-41
2022/05/20 06:09:33;;;;;;;0.20;0.20;;;25.20;54.10;;;28.10;40.21;102131.16;5136774;27;20201;-42
2022/05/20 06:12:01;;;;;;;0.20;0.20;;;25.20;54.70;;;28.13;40.47;102132.56;5123508;28;20195;-43
2022/05/20 06:14:28;;;;;;;0.30;0.30;;;25.20;54.10;;;28.12;40.18;102123.59;5109095;28;20201;-43
2022/05/20 06:16:54;;;;;;;0.30;0.30;;;25.20;54.10;;;28.13;40.30;102122.53;5073200;28;20290;-43
2022/05/20 06:19:21;;;;;;;0.30;0.30;;;25.20;54.10;;;28.14;40.03;102121.47;5041953;28;20203;-43
2022/05/20 06:21:49;;;;;;;0.20;0.20;;;25.20;54.10;;;28.16;40.16;102123.91;4929582;28;20662;-44
2022/05/20 06:24:17;;;;;;;0.23;0.23;;;25.20;54.00;;;28.16;39.85;102123.91;4886332;29;20227;-43
2022/05/20 06:29:20;;;;;;;0.20;0.20;;;25.20;54.00;;;28.21;40.08;102120.44;5142702;27;20556;-43
2022/05/20 06:31:48;;;;;;;0.30;0.30;;;25.20;54.00;;;28.21;40.22;102115.03;5135532;27;20202;-44
2022/05/20 06:34:15;;;;;;;0.30;0.30;;;25.20;53.90;;;28.23;39.77;102123.69;5085010;28;20723;-43
2022/05/20 06:42:13;;;;;;;0.30;0.30;;;25.30;53.90;;;28.23;39.97;102123.69;4907407;29;20213;-44
2022/05/20 06:48:12;;;;;;;0.30;0.30;;;25.30;53.80;;;28.22;39.62;102128.28;5138288;27;20573;-44
2022/05/20 06:50:42;;;;;;;0.30;0.30;;;25.30;53.80;;;28.26;39.55;102134.84;5102071;28;20206;-46
2022/05/20 06:53:10;;;;;;;0.33;0.33;;;25.30;53.80;;;28.28;39.88;102132.69;5095638;27;20207;-46
2022/05/20 06:55:39;;;;;;;0.20;0.20;;;25.30;53.90;;;28.29;39.99;102128.09;5006662;28;20223;-43
2022/05/20 06:58:06;;;;;;;0.30;0.30;;;25.30;53.80;;;28.30;39.80;102121.59;4924967;28;20221;-44
2022/05/20 07:00:33;;;;;;;0.30;0.30;;;25.30;53.80;;;28.29;39.59;102118.06;4836478;29;20216;-42
2022/05/20 07:03:00;;;;;;;0.40;0.40;;;25.30;53.80;;;28.30;39.92;102124.31;4743540;29;20226;-43
2022/05/20 07:05:27;;;;;;;0.30;0.30;;;25.30;53.80;;;28.30;39.91;102118.88;4640336;30;20249;-41
2022/05/20 07:10:27;;;;;;;0.30;0.30;;;25.40;53.90;;;28.32;39.81;102095.88;5125609;27;20309;-44
2022/05/20 07:12:53;;;;;;;0.40;0.40;;;25.40;53.90;;;28.34;39.95;102090.19;5098046;28;20259;-42
2022/05/20 07:15:20;;;;;;;0.40;0.40;;;25.40;53.90;;;28.36;39.83;102096.97;5075871;28;20282;-43
2022/05/20 07:17:48;;;;;;;0.30;0.30;;;25.40;53.80;;;28.38;39.92;102107.56;5057849;28;21349;-41
2022/05/20 07:20:15;;;;;;;0.40;0.40;;;25.40;53.80;;;28.39;39.74;102109.19;5010088;28;20849;-42
2022/05/20 07:22:41;;;;;;;0.30;0.30;;;25.40;53.80;;;28.41;39.79;102105.16;4923226;28;20205;-43
2022/05/20 07:25:09;;;;;;;0.30;0.30;;;25.40;53.80;;;28.43;39.64;102107.63;4865783;28;20307;-43
2022/05/20 07:27:37;;;;;;;0.20;0.20;;;25.40;53.80;;;28.44;39.81;102109.25;4783464;29;21738;-42
2022/05/20 07:30:03;;;;;;;0.40;0.40;;;25.40;53.80;;;28.46;39.76;102101.66;4718452;29;20589;-43
2022/05/20 07:35:10;;;;;;;0.43;0.40;;;25.40;53.80;;;28.48;39.66;102100.31;5114446;27;20579;-44
2022/05/20 07:37:37;;;;;;;0.20;0.20;;;25.50;53.90;;;28.49;39.72;102079.47;5089597;28;20204;-43
2022/05/20 07:40:05;;;;;;;0.40;0.30;;;25.50;53.90;;;28.50;39.71;102075.69;5080950;28;20200;-42
2022/05/20 07:42:31;;;;;;;0.30;0.30;;;25.50;53.80;;;28.50;39.56;102070.28;5059895;28;20205;-42
2022/05/20 07:45:01;;;;;;;0.47;0.40;;;25.50;53.80;;;28.52;39.93;102062.69;5014188;28;20274;-43
2022/05/20 07:47:28;;;;;;;0.30;0.30;;;25.50;53.80;;;28.52;39.78;102068.94;4928179;28;20281;-42
2022/05/20 07:50:00;;;;;;;0.30;0.30;;;25.50;53.80;;;28.53;39.72;102056.19;4814311;29;20213;-42
2022/05/20 07:55:08;;;;;;;0.30;0.30;;;25.60;53.80;;;28.55;39.21;102057.56;5116140;27;20568;-45
2022/05/20 07:57:38;;;;;;;0.30;0.30;;;25.60;53.80;;;28.58;39.55;102051.63;5051681;28;20312;-43
2022/05/20 08:00:09;;;;;;;0.40;0.40;;;25.60;53.80;;;28.58;39.56;102039.94;5039883;28;20201;-42
2022/05/20 08:02:36;;;;;;;1.80;0.33;;;25.60;53.80;;;28.58;39.94;102039.94;5047919;28;20208;-43
2022/05/20 08:05:08;;;;;;;0.37;0.37;;;25.60;53.70;;;28.58;39.73;102039.94;5006680;28;20761;-45
2022/05/20 08:07:41;;;;;;;0.30;0.30;;;25.60;53.70;;;28.57;39.71;102036.44;4945418;28;22087;-43
2022/05/20 08:10:14;;;;;;;1.20;0.40;;;25.60;53.70;;;28.58;39.77;102037.25;4817432;29;20601;-45
2022/05/20 08:15:19;;;;;;;0.73;0.30;;;25.60;53.70;;;28.60;40.03;102032.41;5105176;27;20569;-44
2022/05/20 08:17:46;;;;;;;0.30;0.30;;;25.70;53.80;;;28.60;39.81;102032.41;5093658;28;20791;-41
2022/05/20 08:20:21;;;;;;;0.30;0.30;;;25.70;53.70;;;28.60;39.97;102029.69;5077863;28;20209;-41
2022/05/20 08:22:48;;;;;;;0.57;0.57;;;25.60;53.70;;;28.61;39.68;102034.03;5009875;28;20212;-41
2022/05/20 08:25:15;;;;;;;0.37;0.37;;;25.70;53.70;;;28.61;39.85;102034.03;4975559;28;20237;-42
2022/05/20 08:27:43;;;;;;;0.30;0.30;;;25.70;53.70;;;28.61;39.75;102034.03;4876996;28;20284;-41
2022/05/20 08:30:14;;;;;;;0.40;0.40;;;25.70;53.70;;;28.61;39.54;102031.34;4738676;29;20237;-41
2022/05/20 08:35:33;;;;;;;0.63;0.40;;;25.70;53.70;;;28.60;39.77;102026.97;5107707;27;20577;-42
2022/05/20 08:38:04;;;;;;;0.30;0.30;;;25.70;54.20;;;28.59;39.72;102030.75;5114066;27;20280;-41
2022/05/20 08:40:41;;;;;;;0.30;0.30;;;25.70;53.60;;;28.59;40.38;102019.91;5082674;28;20228;-41
2022/05/20 08:43:09;;;;;;;0.47;0.47;;;25.70;53.60;;;28.61;39.61;102023.19;5060190;28;20212;-41
2022/05/20 08:45:36;;;;;;;0.50;0.50;;;25.70;53.60;;;28.62;39.69;102014.78;4997554;28;20243;-41
2022/05/20 08:48:06;;;;;;;0.40;0.40;;;25.70;53.60;;;28.62;39.62;102014.00;4890652;28;20228;-40
2022/05/20 08:50:41;;;;;;;0.50;0.40;;;25.70;53.60;;;28.61;39.80;102013.19;4702348;30;20689;-41
2022/05/20 08:53:07;;;;;;;0.30;0.30;;;25.70;53.50;;;28.62;39.72;102003.16;4531314;31;20247;-41
2022/05/20 08:55:33;;;;;;;0.40;0.40;;;25.70;53.60;;;28.62;39.58;102005.88;4360442;32;20587;-41
2022/05/20 09:00:32;;;;;;;1.60;0.30;;;25.70;53.50;;;28.63;39.66;101994.75;5118430;27;20309;-41
2022/05/20 09:03:02;;;;;;;1.97;0.47;;;25.70;53.50;;;28.64;39.68;101988.28;5093779;28;20223;-42
2022/05/20 09:05:36;;;;;;;0.40;0.40;;;25.70;53.50;;;28.66;39.79;101990.69;5089860;28;20297;-44
2022/05/20 09:08:07;;;;;;;0.30;0.30;;;25.70;53.50;;;28.66;39.48;101988.81;5027410;28;20243;-43
2022/05/20 09:10:41;;;;;;;0.30;0.30;;;25.70;53.50;;;28.66;39.64;101982.56;4974560;28;20212;-41
2022/05/20 09:13:18;;;;;;;0.63;0.40;;;25.70;53.50;;;28.66;39.66;101974.44;4874391;29;20210;-43
2022/05/20 09:15:58;;;;;;;0.30;0.30;;;25.80;53.50;;;28.64;40.00;101969.28;4817303;29;20239;-41
2022/05/20 09:21:33;;;;;;;0.60;0.53;;;25.80;53.50;;;28.66;39.65;101960.88;5115185;27;20551;-40
2022/05/20 09:24:05;;;;;;;0.30;0.30;;;25.80;53.50;;;28.67;39.47;101957.06;5060062;28;20208;-41
2022/05/20 09:26:37;;;;;;;0.40;0.40;;;25.80;53.60;;;28.67;39.82;101959.78;5068983;28;20242;-41
2022/05/20 09:29:09;;;;;;;0.60;0.40;;;25.80;53.50;;;28.69;39.78;101954.94;5023958;28;20211;-42
2022/05/20 09:32:00;;;;;;;0.40;0.40;;;25.80;53.50;;;28.69;39.58;101949.53;4953770;28;20233;-42
2022/05/20 09:34:35;;;;;;;2.93;0.40;;;25.80;53.50;;;28.68;39.55;101931.63;4889797;29;20935;-41
2022/05/20 09:37:05;;;;;;;2.10;0.47;;;25.80;53.50;;;28.70;39.62;101926.75;4702127;29;22069;-40
2022/05/20 09:39:38;;;;;;;0.37;0.37;;;25.80;53.50;;;28.69;39.69;101928.63;4621285;30;20238;-40
2022/05/20 09:44:47;;;;;;;0.33;0.33;;;25.80;53.50;;;28.72;39.48;101919.16;5170554;27;20535;-41
2022/05/20 09:47:24;;;;;;;0.30;0.30;;;25.80;53.50;;;28.71;39.59;101914.81;5104709;27;20203;-42
2022/05/20 09:49:56;;;;;;;0.73;0.50;;;25.80;53.50;;;28.75;39.86;101915.91;5095546;27;20199;-40
2022/05/20 09:52:38;;;;;;;0.60;0.30;;;25.80;53.50;;;28.73;39.53;101905.34;5076013;28;20243;-41
2022/05/20 09:55:13;;;;;;;0.30;0.30;;;25.80;53.40;;;28.75;39.71;101918.63;4968660;28;20231;-43
2022/05/20 09:57:43;;;;;;;1.20;0.30;;;25.80;53.40;;;28.77;39.59;101911.84;4876382;29;20236;-42
2022/05/20 10:00:18;;;;;;;0.40;0.30;;;25.80;53.40;;;28.76;39.54;101906.72;4851857;29;20217;-40
2022/05/20 10:02:45;;;;;;;0.20;0.20;;;25.90;53.40;;;28.77;39.51;101903.72;4610178;30;20617;-41
2022/05/20 10:08:23;;;;;;;1.50;0.40;;;25.80;53.40;;;28.72;39.47;101890.16;5135318;27;20542;-40
2022/05/20 10:11:12;;;;;;;0.30;0.30;;;25.90;53.40;;;28.73;39.84;101888.25;5048769;28;20562;-41
2022/05/20 10:13:53;;;;;;;1.10;0.30;;;25.90;53.30;;;28.76;39.23;101885.81;5027461;28;20260;-40
2022/05/20 10:16:33;;;;;;;0.30;0.30;;;25.90;53.30;;;28.76;39.67;101879.59;4966714;28;20224;-40
2022/05/20 10:19:13;;;;;;;0.50;0.30;;;25.90;53.30;;;28.77;39.43;101881.22;4866520;29;20213;-41
2022/05/20 10:21:56;;;;;;;0.43;0.40;;;25.90;53.30;;;28.77;39.35;101873.09;4671924;30;20312;-42
2022/05/20 10:25:10;;;;;;;0.30;0.30;;;25.90;53.20;;;28.73;39.78;101867.41;4604361;30;20264;-41
2022/05/20 10:34:41;;;;;;;0.33;0.33;;;25.90;53.10;;;28.77;39.63;101875.78;5055583;28;20212;-41
2022/05/20 10:37:25;;;;;;;0.20;0.20;;;25.90;53.10;;;28.76;39.27;101868.75;5042041;28;20681;-43
2022/05/20 10:40:20;;;;;;;0.30;0.30;;;25.90;53.10;;;28.77;39.35;101848.69;4924027;28;20678;-42
2022/05/20 10:43:11;;;;;;;0.70;0.37;;;25.90;53.10;;;28.75;39.52;101857.09;4825611;29;20234;-42
2022/05/20 10:49:06;;;;;;;1.47;0.40;;;25.90;53.20;;;28.78;39.26;101845.72;5146402;27;20550;-39
2022/05/20 10:51:55;;;;;;;0.40;0.40;;;25.90;53.10;;;28.82;39.62;101840.56;5096463;28;20234;-41
2022/05/20 10:55:10;;;;;;;0.93;0.50;;;26.00;53.20;;;28.79;39.48;101835.66;5095852;27;20214;-39
2022/05/20 10:58:16;;;;;;;0.50;0.50;;;26.00;53.20;;;28.79;39.57;101824.81;5051888;28;20208;-40
2022/05/20 11:00:52;;;;;;;0.20;0.20;;;26.00;53.10;;;28.84;39.46;101827.53;5052662;28;20197;-41
2022/05/20 11:04:12;;;;;;;0.70;0.50;;;25.90;53.00;;;28.76;39.49;101814.53;4928189;28;20219;-41
2022/05/20 11:06:38;;;;;;;0.73;0.40;;;26.00;53.00;;;28.82;39.36;101808.84;4704217;30;20325;-40
2022/05/20 11:09:04;;;;;;;0.80;0.40;;;26.00;53.00;;;28.84;39.40;101822.13;4556228;31;20281;-39
2022/05/20 11:11:57;;;;;;;0.40;0.40;;;25.90;52.90;;;28.81;39.58;101811.84;5170244;27;21113;-41
2022/05/20 11:15:28;;;;;;;0.87;0.30;;;26.00;53.00;;;28.74;39.33;101806.66;5130221;27;20225;-42
2022/05/20 11:18:19;;;;;;;0.50;0.40;;;26.00;52.90;;;28.76;39.74;101814.53;5060246;28;20245;-40
2022/05/20 11:21:30;;;;;;;0.57;0.43;;;26.00;52.90;;;28.72;39.22;101802.59;5010064;28;20236;-42
2022/05/20 11:24:31;;;;;;;0.53;0.53;;;26.00;52.90;;;28.76;39.25;101787.44;4858284;29;20983;-42
2022/05/20 11:27:25;;;;;;;0.40;0.40;;;25.90;52.80;;;28.75;38.99;101796.63;4725788;29;20218;-41
2022/05/20 11:30:06;;;;;;;0.40;0.40;;;25.90;52.90;;;28.74;39.17;101784.19;4603064;30;20335;-42
2022/05/20 11:35:32;;;;;;;0.53;0.40;;;25.90;52.90;;;28.76;39.31;101784.72;5137336;27;20547;-39
2022/05/20 11:38:24;;;;;;;0.83;0.50;;;25.90;52.90;;;28.76;39.19;101776.59;5089116;28;20211;-41
2022/05/20 11:41:12;;;;;;;0.67;0.50;;;25.90;52.90;;;28.76;39.31;101765.75;5086253;28;20244;-40
2022/05/20 11:44:13;;;;;;;0.60;0.60;;;25.90;52.90;;;28.73;39.12;101755.44;5101135;28;20197;-42
2022/05/20 11:47:22;;;;;;;0.50;0.50;;;25.90;52.90;;;28.75;39.22;101743.22;5013834;28;20310;-41
2022/05/20 11:50:11;;;;;;;0.60;0.40;;;25.90;52.90;;;28.79;39.39;101732.66;4946456;28;20292;-41
2022/05/20 11:56:05;;;;;;;2.10;0.50;;;25.90;52.90;;;28.82;39.23;101722.09;5121839;27;21123;-41
2022/05/20 11:58:41;;;;;;;1.77;0.60;;;26.00;53.00;;;28.83;39.29;101712.88;5085548;28;20253;-40
2022/05/20 12:01:10;;;;;;;0.47;0.47;;;26.00;53.00;;;28.88;39.27;101712.06;5078062;28;20206;-40
2022/05/20 12:06:30;;;;;;;0.97;0.50;;;26.00;53.00;;;28.90;39.16;101695.50;5052502;28;20240;-41
2022/05/20 12:09:30;;;;;;;3.20;0.40;;;26.00;53.00;;;28.84;39.18;101681.13;4907093;29;20310;-41
2022/05/20 12:12:11;;;;;;;0.60;0.40;;;26.00;52.90;;;28.88;38.91;101676.81;4662863;30;20576;-43
2022/05/20 12:17:10;;;;;;;1.40;0.30;;;26.00;52.90;;;28.90;39.25;101652.13;5166205;27;20319;-42
2022/05/20 12:25:53;;;;;;;0.40;0.40;;;26.00;52.80;;;28.87;39.06;101642.63;5047811;28;20688;-40
2022/05/20 12:28:33;;;;;;;0.40;0.40;;;26.00;52.80;;;28.84;39.14;101637.75;5016337;28;20259;-43
2022/05/20 12:31:11;;;;;;;0.30;0.30;;;26.00;52.80;;;28.83;38.85;101636.97;4947715;28;20212;-43